Albert City, Iowa
Current Conditions -  °F | °C
As of 4:35 AM on Sunday 21 Dec 2014 (Local Time) from KSLB Reporting Station
Moderate Fog Moderate Fog  
Wind Chill: 25°   Ceiling: 200
Heat Index: 34°   Visibility: 0mi
Dew Point: 34°   Wind: 12mph
Humidity: 100%   Direction: 170°S
Pressure: 29.9"   Gusts: NA
Location:  42.78°N, 94.95°W
Report Text: KSLB 211035Z AUTO 17010KT M1/4SM FG OVC002 01/01 A2990 RMK AO2
Loading
Personal Weather Stations






























Interactive Weather Map New forecast layout! Learn more

10-Day Weather Forecast

Advertisements
Track Severe Weather on mobile